createdAt,value
2023-05-14T00:01:36.103Z,64.90
2023-05-14T00:04:07.639Z,64.65
2023-05-14T00:06:38.508Z,64.66
2023-05-14T00:09:10.071Z,64.67
2023-05-14T00:11:41.014Z,64.76
2023-05-14T00:14:11.709Z,64.86
2023-05-14T00:16:42.515Z,64.98
2023-05-14T00:19:13.205Z,65.09
2023-05-14T00:21:44.174Z,65.32
2023-05-14T00:24:15.020Z,65.36
2023-05-14T00:26:45.850Z,65.28
2023-05-14T00:29:16.551Z,65.28
2023-05-14T00:31:47.684Z,65.24
2023-05-14T00:34:18.632Z,65.39
2023-05-14T00:36:49.355Z,65.24
2023-05-14T00:39:20.224Z,65.30
2023-05-14T00:41:50.948Z,65.26
2023-05-14T00:44:21.713Z,65.39
2023-05-14T00:46:52.926Z,65.42
2023-05-14T00:49:24.704Z,65.42
2023-05-14T00:51:55.983Z,65.57
2023-05-14T00:54:27.019Z,65.61
2023-05-14T00:56:59.519Z,65.45
2023-05-14T00:59:30.688Z,65.27
2023-05-14T01:02:01.747Z,65.22
2023-05-14T01:04:32.673Z,65.22
2023-05-14T01:07:10.784Z,65.20
2023-05-14T01:09:46.714Z,65.30
2023-05-14T01:12:20.925Z,65.45
2023-05-14T01:14:58.562Z,65.65
2023-05-14T01:17:34.041Z,65.89
2023-05-14T01:20:05.901Z,65.90
2023-05-14T01:22:36.635Z,65.98
2023-05-14T01:25:08.973Z,66.08
2023-05-14T01:27:45.007Z,66.23
2023-05-14T01:30:23.131Z,66.53
2023-05-14T01:33:00.044Z,66.49
2023-05-14T01:35:32.424Z,66.43
2023-05-14T01:38:05.985Z,66.29
2023-05-14T01:40:38.301Z,66.35
2023-05-14T01:43:09.384Z,66.32
2023-05-14T01:45:40.547Z,66.60
2023-05-14T01:48:11.382Z,66.75
2023-05-14T01:50:42.100Z,66.94
2023-05-14T01:53:13.286Z,66.97
2023-05-14T01:55:43.975Z,66.92
2023-05-14T01:58:14.768Z,67.06
2023-05-14T02:00:45.539Z,66.69
2023-05-14T02:03:16.152Z,66.84
2023-05-14T02:05:46.786Z,67.06
2023-05-14T02:08:17.550Z,67.24
2023-05-14T02:10:48.290Z,67.31
2023-05-14T02:13:19.628Z,67.24
2023-05-14T02:15:50.429Z,67.21
2023-05-14T02:18:21.890Z,67.05
2023-05-14T02:20:52.607Z,67.09
2023-05-14T02:23:34.230Z,67.07
2023-05-14T02:26:12.454Z,67.16
2023-05-14T02:28:43.104Z,67.13
2023-05-14T02:31:17.685Z,67.08
2023-05-14T02:33:48.453Z,67.19
2023-05-14T02:36:19.172Z,67.23
2023-05-14T02:38:49.820Z,67.27
2023-05-14T02:41:21.650Z,67.43
2023-05-14T02:43:53.109Z,67.43
2023-05-14T02:46:25.767Z,67.49
2023-05-14T02:48:56.373Z,67.50
2023-05-14T02:51:27.307Z,67.56
2023-05-14T02:53:57.985Z,67.63
2023-05-14T02:56:28.644Z,67.89
2023-05-14T02:58:59.275Z,67.98
2023-05-14T03:01:30.514Z,67.92
2023-05-14T03:04:02.145Z,67.81
2023-05-14T03:06:32.893Z,67.86
2023-05-14T03:09:03.661Z,67.88
2023-05-14T03:11:34.637Z,67.93
2023-05-14T03:14:05.334Z,68.05
2023-05-14T03:16:36.189Z,70.83
2023-05-14T03:19:06.955Z,71.81
2023-05-14T03:21:37.714Z,71.00
2023-05-14T03:24:09.218Z,68.68
2023-05-14T03:26:39.821Z,68.15
2023-05-14T03:29:11.573Z,68.47
2023-05-14T03:31:42.258Z,67.82
2023-05-14T03:34:12.963Z,68.44
2023-05-14T03:36:43.714Z,67.74
2023-05-14T03:39:15.573Z,67.79
2023-05-14T03:41:46.451Z,68.28
2023-05-14T03:44:17.654Z,68.72
2023-05-14T03:46:48.295Z,69.25
2023-05-14T03:49:19.189Z,69.46
2023-05-14T03:51:49.878Z,69.00
2023-05-14T03:54:20.654Z,69.25
2023-05-14T03:56:51.251Z,68.85
2023-05-14T03:59:22.231Z,68.44
2023-05-14T04:01:53.012Z,68.70
2023-05-14T04:04:23.684Z,68.58
2023-05-14T04:06:54.537Z,68.44
2023-05-14T04:09:25.239Z,68.32
2023-05-14T04:11:55.911Z,67.93
2023-05-14T04:14:27.799Z,67.76
2023-05-14T04:17:00.188Z,67.29
2023-05-14T04:19:31.459Z,66.66
2023-05-14T04:22:02.152Z,66.90
2023-05-14T04:24:32.837Z,66.92
2023-05-14T04:27:03.814Z,67.22
2023-05-14T04:29:34.903Z,66.71
2023-05-14T04:32:06.692Z,66.51
2023-05-14T04:34:37.402Z,67.09
2023-05-14T04:37:08.278Z,66.83
2023-05-14T04:39:38.948Z,65.92
2023-05-14T04:42:10.848Z,65.20
2023-05-14T04:44:41.488Z,64.21
2023-05-14T04:47:12.567Z,63.70
2023-05-14T04:49:43.520Z,63.73
2023-05-14T04:52:14.224Z,63.62
2023-05-14T04:54:45.003Z,63.28
2023-05-14T04:57:15.877Z,62.70
2023-05-14T04:59:46.625Z,61.98
2023-05-14T05:02:17.478Z,61.53
2023-05-14T05:04:48.383Z,61.46
2023-05-14T05:07:19.149Z,61.20
2023-05-14T05:09:49.776Z,60.23
2023-05-14T05:12:21.566Z,59.98
2023-05-14T05:14:52.254Z,59.96
2023-05-14T05:17:22.931Z,59.29
2023-05-14T05:19:53.772Z,58.19
2023-05-14T05:22:24.535Z,57.99
2023-05-14T05:24:55.152Z,57.47
2023-05-14T05:27:26.344Z,56.70
2023-05-14T05:29:57.495Z,55.66
2023-05-14T05:32:28.654Z,54.88
2023-05-14T05:34:59.772Z,54.48
2023-05-14T05:37:31.155Z,54.04
2023-05-14T05:40:01.840Z,53.26
2023-05-14T05:42:32.525Z,52.47
2023-05-14T05:45:03.199Z,51.83
2023-05-14T05:47:34.069Z,51.41
2023-05-14T05:50:05.346Z,51.74
2023-05-14T05:52:36.080Z,51.59
2023-05-14T05:55:07.853Z,51.44
2023-05-14T05:57:38.529Z,50.00
2023-05-14T06:00:14.053Z,49.33
2023-05-14T06:02:45.050Z,49.29
2023-05-14T06:05:16.077Z,49.55
2023-05-14T06:07:46.876Z,49.53
2023-05-14T06:10:17.532Z,49.03
2023-05-14T06:12:48.310Z,48.63
2023-05-14T06:15:19.404Z,48.78
2023-05-14T06:17:50.134Z,47.74
2023-05-14T06:20:21.733Z,47.28
2023-05-14T06:22:52.719Z,47.87
2023-05-14T06:25:23.411Z,47.50
2023-05-14T06:27:53.987Z,47.58
2023-05-14T06:30:25.092Z,46.95
2023-05-14T06:32:56.063Z,46.69
2023-05-14T06:35:27.608Z,46.58
2023-05-14T06:37:58.420Z,45.59
2023-05-14T06:40:29.031Z,44.56
2023-05-14T06:43:00.166Z,44.57
2023-05-14T06:45:32.423Z,44.47
2023-05-14T06:48:04.018Z,43.93
2023-05-14T06:50:34.788Z,43.71
2023-05-14T06:53:05.597Z,43.29
2023-05-14T06:55:36.535Z,42.42
2023-05-14T06:58:09.364Z,43.18
2023-05-14T07:00:40.580Z,43.32
2023-05-14T07:03:11.253Z,42.74
2023-05-14T07:05:42.116Z,41.36
2023-05-14T07:08:12.761Z,41.06
2023-05-14T07:10:43.370Z,42.00
2023-05-14T07:13:13.952Z,42.98
2023-05-14T07:15:44.562Z,42.17
2023-05-14T07:18:15.302Z,42.84
2023-05-14T07:20:46.098Z,42.55
2023-05-14T07:23:18.576Z,42.61
2023-05-14T07:25:50.643Z,42.27
2023-05-14T07:28:21.365Z,42.66
2023-05-14T07:30:52.018Z,42.01
2023-05-14T07:33:23.272Z,40.42
2023-05-14T07:35:54.592Z,40.66
2023-05-14T07:38:25.590Z,41.17
2023-05-14T07:40:56.239Z,39.67
2023-05-14T07:43:27.116Z,40.09
2023-05-14T07:45:57.893Z,39.60
2023-05-14T07:48:28.714Z,40.59
2023-05-14T07:50:59.402Z,39.95
2023-05-14T07:53:30.382Z,39.03
2023-05-14T07:56:01.069Z,38.43
2023-05-14T07:58:31.974Z,39.35
2023-05-14T08:01:06.982Z,39.51
2023-05-14T08:03:37.749Z,39.31
2023-05-14T08:06:09.051Z,38.60
2023-05-14T08:08:39.761Z,38.13
2023-05-14T08:11:10.997Z,38.82
2023-05-14T08:13:41.964Z,38.89
2023-05-14T08:16:12.836Z,38.21
2023-05-14T08:18:43.472Z,37.62
2023-05-14T08:21:14.093Z,36.86
2023-05-14T08:23:45.529Z,36.83
2023-05-14T08:26:16.109Z,38.18
2023-05-14T08:28:46.857Z,36.79
2023-05-14T08:31:17.578Z,37.62
2023-05-14T08:33:48.181Z,37.71
2023-05-14T08:36:18.743Z,37.15
2023-05-14T08:38:50.416Z,37.31
2023-05-14T08:41:22.343Z,37.22
2023-05-14T08:43:58.110Z,37.57
2023-05-14T08:46:31.367Z,38.34
2023-05-14T08:49:12.433Z,38.65
2023-05-14T08:51:43.419Z,38.71
2023-05-14T08:54:17.092Z,38.70
2023-05-14T08:56:50.513Z,38.25
2023-05-14T08:59:22.583Z,38.66
2023-05-14T09:01:55.424Z,38.59
2023-05-14T09:04:27.574Z,38.01
2023-05-14T09:06:58.393Z,37.94
2023-05-14T09:09:29.623Z,38.30
2023-05-14T09:12:02.290Z,38.71
2023-05-14T09:14:33.967Z,39.36
2023-05-14T09:17:05.390Z,40.04
2023-05-14T09:19:38.102Z,39.71
2023-05-14T09:22:13.113Z,39.44
2023-05-14T09:24:44.848Z,38.95
2023-05-14T09:27:21.600Z,40.67
2023-05-14T09:29:52.332Z,41.41
2023-05-14T09:32:22.998Z,40.80
2023-05-14T09:34:54.288Z,41.57
2023-05-14T09:37:26.083Z,42.01
2023-05-14T09:39:57.526Z,42.01
2023-05-14T09:42:28.381Z,41.77
2023-05-14T09:44:59.582Z,41.03
2023-05-14T09:47:30.331Z,41.83
2023-05-14T09:50:01.217Z,41.35
2023-05-14T09:52:32.237Z,40.86
2023-05-14T09:55:04.125Z,41.00
2023-05-14T09:57:35.403Z,41.08
2023-05-14T10:00:08.894Z,40.35
2023-05-14T10:02:41.665Z,39.68
2023-05-14T10:05:16.020Z,40.37
2023-05-14T10:07:50.616Z,39.94
2023-05-14T10:10:24.370Z,39.07
2023-05-14T10:12:58.344Z,38.71
2023-05-14T10:15:35.045Z,38.74
2023-05-14T10:18:12.118Z,38.23
2023-05-14T10:20:43.211Z,38.45
2023-05-14T10:23:14.092Z,37.49
2023-05-14T10:25:45.261Z,37.27
2023-05-14T10:28:16.186Z,37.37
2023-05-14T10:30:49.570Z,37.45
2023-05-14T10:33:20.395Z,38.42
2023-05-14T10:36:04.169Z,36.44
2023-05-14T10:38:35.882Z,37.15
2023-05-14T10:41:08.770Z,37.41
2023-05-14T10:43:41.413Z,38.53
2023-05-14T10:46:14.130Z,38.68
2023-05-14T10:48:46.721Z,38.67
2023-05-14T10:51:20.857Z,38.23
2023-05-14T10:53:52.199Z,38.31
2023-05-14T10:56:23.150Z,38.52
2023-05-14T10:58:59.291Z,38.65
2023-05-14T11:01:30.638Z,38.61
2023-05-14T11:04:04.104Z,38.80
2023-05-14T11:06:35.510Z,37.99
2023-05-14T11:09:07.509Z,37.14
2023-05-14T11:11:38.646Z,37.58
2023-05-14T11:14:10.441Z,38.10
2023-05-14T11:16:41.467Z,36.75
2023-05-14T11:19:13.649Z,37.53
2023-05-14T11:21:44.612Z,37.99
2023-05-14T11:24:15.699Z,36.49
2023-05-14T11:26:46.405Z,36.61
2023-05-14T11:29:17.148Z,37.00
2023-05-14T11:31:47.865Z,37.59
2023-05-14T11:34:18.704Z,37.84
2023-05-14T11:36:49.681Z,38.25
2023-05-14T11:39:21.963Z,38.30
2023-05-14T11:41:52.672Z,38.31
2023-05-14T11:44:23.553Z,38.33
2023-05-14T11:47:01.408Z,38.82
2023-05-14T11:49:30.471Z,38.74
2023-05-14T11:52:01.829Z,38.18
2023-05-14T11:54:33.137Z,38.28
2023-05-14T11:57:08.956Z,38.18
2023-05-14T11:59:40.050Z,38.13
2023-05-14T12:02:13.867Z,38.22
2023-05-14T12:04:45.909Z,38.25
2023-05-14T12:07:17.830Z,38.09
2023-05-14T12:09:49.963Z,37.57
2023-05-14T12:12:22.878Z,37.63
2023-05-14T12:14:53.772Z,37.74
2023-05-14T12:17:25.034Z,37.95
2023-05-14T12:19:58.227Z,38.31
2023-05-14T12:22:30.665Z,37.71
2023-05-14T12:25:02.004Z,37.38
2023-05-14T12:27:32.865Z,37.91
2023-05-14T12:32:41.596Z,37.61
2023-05-14T12:35:12.765Z,38.46
2023-05-14T12:37:43.619Z,38.24
2023-05-14T12:40:15.370Z,37.20
2023-05-14T12:42:46.001Z,37.40
2023-05-14T12:45:16.628Z,37.83
2023-05-14T12:47:47.651Z,37.54
2023-05-14T12:50:18.212Z,37.92
2023-05-14T12:52:48.943Z,37.57
2023-05-14T12:55:19.773Z,37.04
2023-05-14T12:57:50.614Z,37.13
2023-05-14T13:00:22.289Z,37.14
2023-05-14T13:02:53.176Z,37.08
2023-05-14T13:05:23.954Z,36.91
2023-05-14T13:07:55.697Z,36.64
2023-05-14T13:10:26.424Z,36.78
2023-05-14T13:12:58.189Z,36.84
2023-05-14T13:15:28.957Z,36.84
2023-05-14T13:17:59.656Z,37.06
2023-05-14T13:20:31.106Z,37.53
2023-05-14T13:23:01.843Z,38.07
2023-05-14T13:25:32.696Z,38.56
2023-05-14T13:28:03.296Z,39.08
2023-05-14T13:30:34.089Z,39.69
2023-05-14T13:33:05.256Z,39.37
2023-05-14T13:35:36.147Z,39.92
2023-05-14T13:38:07.740Z,39.45
2023-05-14T13:40:38.287Z,39.75
2023-05-14T13:43:09.033Z,39.59
2023-05-14T13:45:39.632Z,39.98
2023-05-14T13:48:10.660Z,40.45
2023-05-14T13:50:41.337Z,40.15
2023-05-14T13:53:11.998Z,38.73
2023-05-14T13:55:43.287Z,38.33
2023-05-14T13:58:13.392Z,38.26
2023-05-14T14:00:44.064Z,40.69
2023-05-14T14:03:14.737Z,41.40
2023-05-14T14:05:45.403Z,41.61
2023-05-14T14:08:23.566Z,41.97
2023-05-14T14:10:55.786Z,41.61
2023-05-14T14:13:26.554Z,41.88
2023-05-14T14:15:57.431Z,40.31
2023-05-14T14:18:28.334Z,40.87
2023-05-14T14:20:59.317Z,39.08
2023-05-14T14:23:30.005Z,39.46
2023-05-14T14:26:01.048Z,39.92
2023-05-14T14:28:32.036Z,39.79
2023-05-14T14:31:02.880Z,41.37
2023-05-14T14:33:33.675Z,42.09
2023-05-14T14:36:04.590Z,41.29
2023-05-14T14:38:35.265Z,41.44
2023-05-14T14:41:07.972Z,42.52
2023-05-14T14:43:40.269Z,42.27
2023-05-14T14:46:11.245Z,41.29
2023-05-14T14:48:42.554Z,40.42
2023-05-14T14:51:13.299Z,40.32
2023-05-14T14:53:44.092Z,40.48
2023-05-14T14:56:14.704Z,39.76
2023-05-14T14:58:45.607Z,40.05
2023-05-14T15:01:17.074Z,40.99
2023-05-14T15:03:48.473Z,40.91
2023-05-14T15:06:19.336Z,41.14
2023-05-14T15:08:50.013Z,40.85
2023-05-14T15:11:20.916Z,41.38
2023-05-14T15:13:51.606Z,41.08
2023-05-14T15:16:22.285Z,41.60
2023-05-14T15:18:53.268Z,41.04
2023-05-14T15:21:24.317Z,41.02
2023-05-14T15:23:54.940Z,40.95
2023-05-14T15:26:26.332Z,41.37
2023-05-14T15:28:58.408Z,41.36
2023-05-14T15:31:27.467Z,41.48
2023-05-14T15:33:58.250Z,41.62
2023-05-14T15:36:29.605Z,41.66
2023-05-14T15:39:00.482Z,41.62
2023-05-14T15:41:31.277Z,41.73
2023-05-14T15:44:02.039Z,41.66
2023-05-14T15:46:33.721Z,42.06
2023-05-14T15:49:04.573Z,41.99
2023-05-14T15:51:35.265Z,41.80
2023-05-14T15:54:06.169Z,41.91
2023-05-14T15:56:36.864Z,41.87
2023-05-14T15:59:07.934Z,42.19
2023-05-14T16:01:38.578Z,41.95
2023-05-14T16:04:09.447Z,42.21
2023-05-14T16:06:42.030Z,42.55
2023-05-14T16:09:12.988Z,42.26
2023-05-14T16:11:43.649Z,42.41
2023-05-14T16:14:14.444Z,42.38
2023-05-14T16:16:45.320Z,42.57
2023-05-14T16:19:16.228Z,42.81
2023-05-14T16:21:47.031Z,42.88
2023-05-14T16:24:20.195Z,43.15
2023-05-14T16:26:50.954Z,43.65
2023-05-14T16:29:21.696Z,43.98
2023-05-14T16:31:52.547Z,43.33
2023-05-14T16:34:23.246Z,43.01
2023-05-14T16:36:53.980Z,43.21
2023-05-14T16:39:24.855Z,43.24
2023-05-14T16:41:55.529Z,43.43
2023-05-14T16:44:26.260Z,43.75
2023-05-14T16:46:57.225Z,44.21
2023-05-14T16:49:27.841Z,44.48
2023-05-14T16:51:58.607Z,45.00
2023-05-14T16:54:29.407Z,45.29
2023-05-14T16:57:00.116Z,45.61
2023-05-14T16:59:30.985Z,46.05
2023-05-14T17:02:01.629Z,46.19
2023-05-14T17:04:33.397Z,46.68
2023-05-14T17:07:04.598Z,46.70
2023-05-14T17:09:35.230Z,46.71
2023-05-14T17:12:06.913Z,47.04
2023-05-14T17:14:37.518Z,46.93
2023-05-14T17:17:08.333Z,47.03
2023-05-14T17:19:38.936Z,47.13
2023-05-14T17:22:09.613Z,46.87
2023-05-14T17:24:40.299Z,46.91
2023-05-14T17:27:11.119Z,46.54
2023-05-14T17:29:46.260Z,46.49
2023-05-14T17:32:17.123Z,46.19
2023-05-14T17:34:48.046Z,46.17
2023-05-14T17:37:18.659Z,45.98
2023-05-14T17:39:49.365Z,46.09
2023-05-14T17:42:20.095Z,46.41
2023-05-14T17:44:50.769Z,46.64
2023-05-14T17:47:21.976Z,46.89
2023-05-14T17:49:52.783Z,47.35
2023-05-14T17:52:23.380Z,47.41
2023-05-14T17:54:54.460Z,47.66
2023-05-14T17:57:25.331Z,47.81
2023-05-14T17:59:56.068Z,47.98
2023-05-14T18:02:26.891Z,48.15
2023-05-14T18:04:57.817Z,48.30
2023-05-14T18:07:28.451Z,48.51
2023-05-14T18:09:59.324Z,48.80
2023-05-14T18:12:30.213Z,48.97
2023-05-14T18:15:00.877Z,49.14
2023-05-14T18:17:31.911Z,49.31
2023-05-14T18:20:03.341Z,49.48
2023-05-14T18:22:34.095Z,49.70
2023-05-14T18:25:05.194Z,49.93
2023-05-14T18:27:39.502Z,50.20
2023-05-14T18:30:13.343Z,50.35
2023-05-14T18:32:45.072Z,50.67
2023-05-14T18:35:16.137Z,50.96
2023-05-14T18:37:46.759Z,51.20
2023-05-14T18:40:18.666Z,51.41
2023-05-14T18:42:49.718Z,51.58
2023-05-14T18:45:21.656Z,51.70
2023-05-14T18:47:52.537Z,51.97
2023-05-14T18:50:23.407Z,52.16
2023-05-14T18:52:54.137Z,52.32
2023-05-14T18:55:25.126Z,52.45
2023-05-14T18:57:56.102Z,52.57
2023-05-14T19:00:26.818Z,52.85
2023-05-14T19:02:57.824Z,52.80
2023-05-14T19:05:28.561Z,52.94
2023-05-14T19:07:59.522Z,53.02
2023-05-14T19:10:30.522Z,53.18
2023-05-14T19:13:02.039Z,53.36
2023-05-14T19:15:32.731Z,53.49
2023-05-14T19:18:03.778Z,53.63
2023-05-14T19:20:34.434Z,53.66
2023-05-14T19:23:05.145Z,53.84
2023-05-14T19:25:36.016Z,53.82
2023-05-14T19:28:07.197Z,54.51
2023-05-14T19:30:37.869Z,54.03
2023-05-14T19:33:08.807Z,53.92
2023-05-14T19:35:39.710Z,54.01
2023-05-14T19:38:10.923Z,53.86
2023-05-14T19:40:42.963Z,53.84
2023-05-14T19:43:14.579Z,53.91
2023-05-14T19:45:45.957Z,53.79
2023-05-14T19:48:19.167Z,53.93
2023-05-14T19:50:49.812Z,53.94
2023-05-14T19:53:20.659Z,54.00
2023-05-14T19:55:51.326Z,53.90
2023-05-14T19:58:21.965Z,54.04
2023-05-14T20:00:54.505Z,54.56
2023-05-14T20:03:27.031Z,54.42
2023-05-14T20:05:58.333Z,54.52
2023-05-14T20:08:29.713Z,54.64
2023-05-14T20:11:00.660Z,54.78
2023-05-14T20:13:32.956Z,54.94
2023-05-14T20:16:02.369Z,55.05
2023-05-14T20:18:33.275Z,55.14
2023-05-14T20:21:04.009Z,55.22
2023-05-14T20:23:36.216Z,56.18
2023-05-14T20:26:05.492Z,57.02
2023-05-14T20:28:36.118Z,56.58
2023-05-14T20:31:06.919Z,57.44
2023-05-14T20:33:37.751Z,57.91
2023-05-14T20:36:08.642Z,57.93
2023-05-14T20:38:40.943Z,57.54
2023-05-14T20:41:10.095Z,57.61
2023-05-14T20:43:40.803Z,57.48
2023-05-14T20:46:11.642Z,56.87
2023-05-14T20:48:42.478Z,55.60
2023-05-14T20:51:13.030Z,55.93
2023-05-14T20:53:43.835Z,56.96
2023-05-14T20:56:14.774Z,55.94
2023-05-14T20:58:45.370Z,56.65
2023-05-14T21:01:15.991Z,56.19
2023-05-14T21:03:47.028Z,56.00
2023-05-14T21:06:17.966Z,56.17
2023-05-14T21:08:48.641Z,56.68
2023-05-14T21:11:20.522Z,57.22
2023-05-14T21:13:51.100Z,57.10
2023-05-14T21:16:21.916Z,57.27
2023-05-14T21:18:52.979Z,56.13
2023-05-14T21:21:23.828Z,55.92
2023-05-14T21:23:54.659Z,55.94
2023-05-14T21:26:25.868Z,56.16
2023-05-14T21:28:56.509Z,56.45
2023-05-14T21:31:27.448Z,57.03
2023-05-14T21:33:58.279Z,57.68
2023-05-14T21:36:29.051Z,58.04
2023-05-14T21:38:59.921Z,57.77
2023-05-14T21:41:31.346Z,57.82
2023-05-14T21:44:02.010Z,57.57
2023-05-14T21:46:32.990Z,57.78
2023-05-14T21:49:03.638Z,57.49
2023-05-14T21:51:34.623Z,57.71
2023-05-14T21:54:05.729Z,57.52
2023-05-14T21:56:37.754Z,57.79
2023-05-14T21:59:08.562Z,57.62
2023-05-14T22:02:04.924Z,57.70
2023-05-14T22:04:30.036Z,57.85
2023-05-14T22:07:01.508Z,58.25
2023-05-14T22:09:32.246Z,58.30
2023-05-14T22:12:03.033Z,58.60
2023-05-14T22:14:33.624Z,58.85
2023-05-14T22:17:04.684Z,59.00
2023-05-14T22:19:35.418Z,58.45
2023-05-14T22:22:06.338Z,58.59
2023-05-14T22:24:37.039Z,59.23
2023-05-14T22:27:08.406Z,59.04
2023-05-14T22:29:39.013Z,58.76
2023-05-14T22:32:10.338Z,58.82
2023-05-14T22:34:41.517Z,58.86
2023-05-14T22:37:12.201Z,59.11
2023-05-14T22:39:42.880Z,59.33
2023-05-14T22:42:13.683Z,59.70
2023-05-14T22:44:44.290Z,59.91
2023-05-14T22:47:15.100Z,59.60
2023-05-14T22:49:45.683Z,59.15
2023-05-14T22:52:16.347Z,59.14
2023-05-14T22:54:46.945Z,59.59
2023-05-14T22:57:17.685Z,59.51
2023-05-14T22:59:48.671Z,59.24
2023-05-14T23:02:19.621Z,59.23
2023-05-14T23:04:50.523Z,59.46
2023-05-14T23:07:21.329Z,59.78
2023-05-14T23:09:52.048Z,60.17
2023-05-14T23:12:22.708Z,60.45
2023-05-14T23:14:53.394Z,60.30
2023-05-14T23:17:24.275Z,60.44
2023-05-14T23:19:55.178Z,60.49
2023-05-14T23:22:26.003Z,60.79
2023-05-14T23:24:56.654Z,60.71
2023-05-14T23:27:27.308Z,61.03
2023-05-14T23:29:57.868Z,61.10
2023-05-14T23:32:28.754Z,61.20
2023-05-14T23:34:59.453Z,61.51
2023-05-14T23:37:30.095Z,61.34
2023-05-14T23:40:01.744Z,61.38
2023-05-14T23:42:32.516Z,61.34
2023-05-14T23:45:03.241Z,61.17
2023-05-14T23:47:34.264Z,61.24
2023-05-14T23:50:05.275Z,61.42
2023-05-14T23:52:35.910Z,61.74
2023-05-14T23:55:07.990Z,61.67
2023-05-14T23:57:38.736Z,61.67
